createdAt,value
2023-03-27T00:01:30.711Z,5.10
2023-03-27T00:04:00.912Z,5.80
2023-03-27T00:06:29.687Z,5.30
2023-03-27T00:08:58.344Z,5.70
2023-03-27T00:11:27.104Z,5.30
2023-03-27T00:13:55.835Z,5.70
2023-03-27T00:16:26.736Z,5.20
2023-03-27T00:18:56.195Z,4.90
2023-03-27T00:21:26.146Z,4.90
2023-03-27T00:23:56.069Z,5.10
2023-03-27T00:26:24.977Z,5.40
2023-03-27T00:28:53.735Z,5.80
2023-03-27T00:31:22.584Z,6.00
2023-03-27T00:33:51.654Z,6.10
2023-03-27T00:36:20.649Z,6.10
2023-03-27T00:38:53.120Z,5.90
2023-03-27T00:41:22.395Z,6.00
2023-03-27T00:43:53.375Z,6.40
2023-03-27T00:46:38.886Z,5.80
2023-03-27T00:49:09.860Z,5.60
2023-03-27T00:51:39.863Z,6.00
2023-03-27T00:54:09.835Z,5.70
2023-03-27T00:56:38.850Z,5.10
2023-03-27T00:59:13.825Z,5.70
2023-03-27T01:01:45.134Z,5.90
2023-03-27T01:04:14.059Z,5.80
2023-03-27T01:06:43.249Z,5.80
2023-03-27T01:09:20.620Z,6.20
2023-03-27T01:12:09.112Z,5.70
2023-03-27T01:14:46.072Z,6.40
2023-03-27T01:17:17.950Z,5.20
2023-03-27T01:19:46.595Z,5.80
2023-03-27T01:22:34.446Z,5.40
2023-03-27T01:25:22.471Z,5.60
2023-03-27T01:28:02.848Z,5.70
2023-03-27T01:30:34.468Z,5.30
2023-03-27T01:33:17.540Z,5.20
2023-03-27T01:38:32.454Z,5.70
2023-03-27T01:41:11.597Z,5.20
2023-03-27T01:43:52.616Z,5.20
2023-03-27T01:46:32.536Z,5.40
2023-03-27T01:49:19.894Z,5.80
2023-03-27T01:52:06.232Z,5.20
2023-03-27T01:54:37.351Z,5.40
2023-03-27T01:57:08.924Z,5.80
2023-03-27T01:59:39.443Z,5.70
2023-03-27T02:02:19.839Z,6.30
2023-03-27T02:04:59.703Z,5.20
2023-03-27T02:07:31.436Z,5.50
2023-03-27T02:10:03.993Z,5.50
2023-03-27T02:12:33.855Z,5.90
2023-03-27T02:15:24.112Z,6.10
2023-03-27T02:17:58.031Z,5.90
2023-03-27T02:20:27.228Z,5.30
2023-03-27T02:23:00.740Z,5.40
2023-03-27T02:25:34.050Z,5.30
2023-03-27T02:28:12.594Z,5.80
2023-03-27T02:30:41.298Z,5.50
2023-03-27T02:33:28.973Z,6.30
2023-03-27T02:36:16.643Z,5.70
2023-03-27T02:38:54.829Z,5.90
2023-03-27T02:41:23.530Z,5.50
2023-03-27T02:44:01.795Z,5.50
2023-03-27T02:46:33.206Z,5.90
2023-03-27T02:49:04.991Z,5.70
2023-03-27T02:51:36.754Z,5.90
2023-03-27T02:54:08.428Z,5.90
2023-03-27T02:56:39.429Z,5.80
2023-03-27T02:59:10.759Z,5.70
2023-03-27T03:01:40.406Z,5.40
2023-03-27T03:04:10.107Z,5.60
2023-03-27T03:06:42.282Z,6.80
2023-03-27T03:09:11.436Z,6.80
2023-03-27T03:11:46.332Z,6.10
2023-03-27T03:14:15.057Z,6.00
2023-03-27T03:16:44.457Z,5.80
2023-03-27T03:19:13.610Z,6.10
2023-03-27T03:21:42.354Z,6.20
2023-03-27T03:24:11.023Z,6.00
2023-03-27T03:26:40.177Z,6.00
2023-03-27T03:29:10.441Z,5.70
2023-03-27T03:31:43.634Z,6.00
2023-03-27T03:34:14.435Z,5.30
2023-03-27T03:36:44.942Z,5.70
2023-03-27T03:39:13.833Z,6.50
2023-03-27T03:41:42.847Z,5.90
2023-03-27T03:44:11.575Z,6.50
2023-03-27T03:46:40.609Z,6.90
2023-03-27T03:49:09.445Z,6.60
2023-03-27T03:51:38.192Z,6.50
2023-03-27T03:54:07.068Z,7.00
2023-03-27T03:56:37.286Z,6.90
2023-03-27T03:59:06.083Z,7.40
2023-03-27T04:01:35.563Z,7.60
2023-03-27T04:04:04.730Z,6.20
2023-03-27T04:06:37.770Z,6.70
2023-03-27T04:11:35.203Z,7.40
2023-03-27T04:14:03.925Z,7.20
2023-03-27T04:16:34.065Z,6.60
2023-03-27T04:19:03.243Z,6.70
2023-03-27T04:21:31.925Z,6.90
2023-03-27T04:24:02.842Z,6.60
2023-03-27T04:26:31.756Z,6.70
2023-03-27T04:29:00.418Z,6.60
2023-03-27T04:31:30.743Z,6.30
2023-03-27T04:33:59.986Z,7.10
2023-03-27T04:36:31.051Z,6.70
2023-03-27T04:39:00.016Z,6.80
2023-03-27T04:41:29.823Z,6.50
2023-03-27T04:43:58.650Z,6.70
2023-03-27T04:46:27.430Z,6.60
2023-03-27T04:48:56.451Z,6.80
2023-03-27T04:51:26.795Z,6.70
2023-03-27T04:53:56.521Z,6.40
2023-03-27T04:56:25.221Z,7.10
2023-03-27T04:58:53.908Z,7.40
2023-03-27T05:01:23.029Z,6.80
2023-03-27T05:03:52.487Z,7.60
2023-03-27T05:06:21.241Z,7.90
2023-03-27T05:08:50.829Z,8.30
2023-03-27T05:11:19.528Z,7.40
2023-03-27T05:13:48.282Z,7.40
2023-03-27T05:16:17.571Z,7.00
2023-03-27T05:18:46.624Z,7.60
2023-03-27T05:21:15.311Z,8.00
2023-03-27T05:23:44.051Z,8.30
2023-03-27T05:26:12.956Z,8.60
2023-03-27T05:28:42.337Z,9.90
2023-03-27T05:31:12.554Z,8.10
2023-03-27T05:33:41.366Z,9.40
2023-03-27T05:36:10.699Z,9.40
2023-03-27T05:38:39.596Z,11.90
2023-03-27T05:41:10.209Z,10.70
2023-03-27T05:43:38.966Z,10.00
2023-03-27T05:46:07.787Z,9.70
2023-03-27T05:48:36.609Z,9.50
2023-03-27T05:51:09.424Z,13.20
2023-03-27T05:53:41.089Z,8.90
2023-03-27T05:56:10.534Z,12.60
2023-03-27T05:58:39.255Z,7.90
2023-03-27T06:01:11.225Z,8.40
2023-03-27T06:03:40.116Z,8.30
2023-03-27T06:06:10.290Z,8.80
2023-03-27T06:08:39.083Z,9.70
2023-03-27T06:11:09.801Z,9.50
2023-03-27T06:13:39.236Z,9.90
2023-03-27T06:16:08.622Z,10.20
2023-03-27T06:18:37.967Z,9.70
2023-03-27T06:21:06.890Z,10.90
2023-03-27T06:23:35.622Z,9.70
2023-03-27T06:26:04.496Z,10.90
2023-03-27T06:28:33.372Z,10.10
2023-03-27T06:31:02.451Z,10.10
2023-03-27T06:33:31.572Z,9.70
2023-03-27T06:36:01.036Z,9.60
2023-03-27T06:38:32.338Z,9.30
2023-03-27T06:41:01.236Z,8.70
2023-03-27T06:43:30.016Z,8.00
2023-03-27T06:45:58.813Z,8.60
2023-03-27T06:48:27.653Z,7.90
2023-03-27T06:50:56.889Z,8.30
2023-03-27T06:53:28.008Z,8.90
2023-03-27T06:55:57.782Z,6.50
2023-03-27T06:58:27.590Z,5.80
2023-03-27T07:00:56.985Z,5.90
2023-03-27T07:03:26.204Z,5.10
2023-03-27T07:05:55.774Z,4.70
2023-03-27T07:08:25.544Z,4.80
2023-03-27T07:13:27.412Z,4.80
2023-03-27T07:15:56.150Z,4.20
2023-03-27T07:18:25.391Z,4.00
2023-03-27T07:20:54.741Z,3.80
2023-03-27T07:23:23.774Z,3.80
2023-03-27T07:25:56.952Z,4.40
2023-03-27T07:28:25.881Z,3.70
2023-03-27T07:30:54.645Z,3.80
2023-03-27T07:33:24.226Z,4.10
2023-03-27T07:35:53.003Z,4.50
2023-03-27T07:38:22.332Z,3.70
2023-03-27T07:40:51.187Z,3.90
2023-03-27T07:43:20.275Z,4.90
2023-03-27T07:45:49.723Z,4.80
2023-03-27T07:48:19.150Z,4.20
2023-03-27T07:50:47.974Z,4.10
2023-03-27T07:53:32.847Z,3.70
2023-03-27T07:56:03.754Z,4.10
2023-03-27T07:58:32.638Z,4.30
2023-03-27T08:01:02.611Z,3.70
2023-03-27T08:03:32.092Z,4.60
2023-03-27T08:06:01.366Z,3.90
2023-03-27T08:08:30.196Z,2.90
2023-03-27T08:10:59.543Z,3.00
2023-03-27T08:13:28.799Z,3.50
2023-03-27T08:16:05.219Z,2.70
2023-03-27T08:18:34.190Z,2.90
2023-03-27T08:21:03.374Z,2.70
2023-03-27T08:23:33.801Z,2.20
2023-03-27T08:26:03.843Z,3.50
2023-03-27T08:28:33.605Z,3.50
2023-03-27T08:31:09.208Z,3.50
2023-03-27T08:33:38.497Z,3.90
2023-03-27T08:36:10.301Z,3.70
2023-03-27T08:38:39.659Z,4.60
2023-03-27T08:41:18.679Z,4.00
2023-03-27T08:43:47.754Z,4.20
2023-03-27T08:46:19.331Z,3.90
2023-03-27T08:48:48.048Z,5.20
2023-03-27T08:51:22.599Z,5.50
2023-03-27T08:54:02.762Z,5.40
2023-03-27T08:56:31.592Z,5.30
2023-03-27T08:59:00.743Z,5.60
2023-03-27T09:01:29.561Z,4.90
2023-03-27T09:04:03.003Z,4.50
2023-03-27T09:06:38.326Z,4.80
2023-03-27T09:09:23.034Z,4.20
2023-03-27T09:11:59.856Z,4.10
2023-03-27T09:14:34.807Z,4.20
2023-03-27T09:17:07.438Z,4.40
2023-03-27T09:19:48.178Z,3.60
2023-03-27T09:22:20.927Z,2.70
2023-03-27T09:24:51.797Z,2.40
2023-03-27T09:27:23.674Z,2.20
2023-03-27T09:30:20.306Z,2.80
2023-03-27T09:32:51.669Z,2.30
2023-03-27T09:35:21.006Z,2.00
2023-03-27T09:37:54.154Z,1.90
2023-03-27T09:40:25.680Z,1.70
2023-03-27T09:42:54.745Z,1.70
2023-03-27T09:45:23.745Z,1.50
2023-03-27T09:47:56.215Z,1.70
2023-03-27T09:50:39.009Z,1.60
2023-03-27T09:53:09.399Z,2.00
2023-03-27T09:55:45.898Z,1.60
2023-03-27T09:58:22.799Z,1.50
2023-03-27T10:01:07.219Z,1.60
2023-03-27T10:03:44.159Z,1.10
2023-03-27T10:06:14.468Z,1.40
2023-03-27T10:08:47.325Z,1.60
2023-03-27T10:11:18.822Z,1.30
2023-03-27T10:13:48.898Z,1.40
2023-03-27T10:16:19.121Z,1.50
2023-03-27T10:18:50.076Z,1.40
2023-03-27T10:21:25.039Z,1.30
2023-03-27T10:23:59.900Z,1.10
2023-03-27T10:26:30.678Z,1.40
2023-03-27T10:29:01.885Z,1.30
2023-03-27T10:31:37.892Z,1.10
2023-03-27T10:34:26.873Z,1.30
2023-03-27T10:36:55.753Z,1.20
2023-03-27T10:39:27.780Z,1.10
2023-03-27T10:41:56.542Z,1.40
2023-03-27T10:44:27.360Z,1.20
2023-03-27T10:46:56.366Z,1.10
2023-03-27T10:49:28.926Z,1.30
2023-03-27T10:52:06.643Z,0.70
2023-03-27T10:54:36.065Z,1.10
2023-03-27T10:57:10.152Z,1.10
2023-03-27T10:59:42.332Z,1.10
2023-03-27T11:02:13.230Z,1.00
2023-03-27T11:04:47.580Z,1.10
2023-03-27T11:07:42.303Z,1.10
2023-03-27T11:10:18.645Z,1.10
2023-03-27T11:12:56.081Z,1.10
2023-03-27T11:15:34.131Z,1.30
2023-03-27T11:18:04.782Z,1.00
2023-03-27T11:20:37.154Z,1.00
2023-03-27T11:23:09.230Z,1.30
2023-03-27T11:25:41.100Z,1.10
2023-03-27T11:28:17.941Z,1.00
2023-03-27T11:30:49.687Z,1.20
2023-03-27T11:33:18.505Z,1.10
2023-03-27T11:35:52.112Z,1.10
2023-03-27T11:38:32.913Z,1.20
2023-03-27T11:41:02.002Z,1.10
2023-03-27T11:43:31.344Z,1.20
2023-03-27T11:46:09.782Z,1.10
2023-03-27T11:48:53.933Z,1.40
2023-03-27T11:51:33.516Z,1.20
2023-03-27T11:54:21.119Z,1.40
2023-03-27T11:56:58.321Z,1.40
2023-03-27T11:59:33.814Z,0.90
2023-03-27T12:02:14.730Z,1.00
2023-03-27T12:04:51.006Z,0.90
2023-03-27T12:07:33.845Z,1.10
2023-03-27T12:10:28.469Z,1.10
2023-03-27T12:15:33.267Z,1.30
2023-03-27T12:18:05.070Z,1.40
2023-03-27T12:20:43.530Z,1.10
2023-03-27T12:23:28.256Z,1.40
2023-03-27T12:26:12.651Z,1.00
2023-03-27T12:29:00.204Z,2.00
2023-03-27T12:31:47.810Z,1.40
2023-03-27T12:34:16.600Z,1.70
2023-03-27T12:36:48.334Z,1.80
2023-03-27T12:39:26.797Z,1.20
2023-03-27T12:41:56.416Z,1.50
2023-03-27T12:44:32.011Z,1.20
2023-03-27T12:47:16.461Z,1.30
2023-03-27T12:49:48.057Z,1.00
2023-03-27T12:52:19.658Z,1.30
2023-03-27T12:55:04.498Z,1.30
2023-03-27T12:57:41.446Z,1.50
2023-03-27T13:00:25.442Z,1.80
2023-03-27T13:03:19.966Z,1.60
2023-03-27T13:06:08.282Z,1.40
2023-03-27T13:08:55.530Z,1.60
2023-03-27T13:11:31.309Z,1.30
2023-03-27T13:14:10.049Z,1.00
2023-03-27T13:16:57.822Z,0.80
2023-03-27T13:19:45.183Z,0.90
2023-03-27T13:22:23.840Z,1.20
2023-03-27T13:25:11.531Z,1.30
2023-03-27T13:27:46.239Z,1.10
2023-03-27T13:30:33.803Z,1.00
2023-03-27T13:33:08.960Z,1.00
2023-03-27T13:35:51.326Z,0.70
2023-03-27T13:38:40.911Z,0.80
2023-03-27T13:41:28.758Z,0.80
2023-03-27T13:43:57.763Z,1.00
2023-03-27T13:46:29.351Z,1.00
2023-03-27T13:49:00.975Z,0.90
2023-03-27T13:51:50.330Z,1.00
2023-03-27T13:54:21.942Z,1.30
2023-03-27T13:56:50.671Z,1.00
2023-03-27T13:59:40.854Z,1.30
2023-03-27T14:02:18.519Z,1.20
2023-03-27T14:05:22.988Z,1.20
2023-03-27T14:07:52.982Z,1.20
2023-03-27T14:10:28.932Z,1.00
2023-03-27T14:13:17.510Z,1.00
2023-03-27T14:16:07.809Z,1.00
2023-03-27T14:18:36.830Z,1.10
2023-03-27T14:21:09.329Z,1.30
2023-03-27T14:23:52.444Z,1.10
2023-03-27T14:28:55.069Z,1.20
2023-03-27T14:31:24.661Z,1.00
2023-03-27T14:34:03.695Z,1.20
2023-03-27T14:36:36.005Z,1.00
2023-03-27T14:39:17.183Z,1.00
2023-03-27T14:41:46.144Z,1.50
2023-03-27T14:44:17.231Z,1.00
2023-03-27T14:46:49.136Z,1.00
2023-03-27T14:49:19.505Z,0.90
2023-03-27T14:51:49.715Z,1.10
2023-03-27T14:54:26.816Z,1.60
2023-03-27T14:56:57.581Z,1.30
2023-03-27T14:59:28.463Z,1.30
2023-03-27T15:01:59.001Z,1.50
2023-03-27T15:04:28.357Z,1.10
2023-03-27T15:07:18.507Z,1.10
2023-03-27T15:09:59.269Z,1.10
2023-03-27T15:12:28.024Z,1.10
2023-03-27T15:14:59.543Z,1.70
2023-03-27T15:17:30.617Z,1.30
2023-03-27T15:20:14.833Z,1.60
2023-03-27T15:22:47.377Z,2.40
2023-03-27T15:25:19.933Z,1.60
2023-03-27T15:27:53.117Z,1.20
2023-03-27T15:30:23.274Z,1.70
2023-03-27T15:32:53.257Z,1.20
2023-03-27T15:35:33.448Z,1.30
2023-03-27T15:38:04.251Z,1.50
2023-03-27T15:40:38.549Z,2.40
2023-03-27T15:43:14.690Z,1.40
2023-03-27T15:45:43.418Z,2.30
2023-03-27T15:48:29.961Z,1.40
2023-03-27T15:51:03.616Z,1.50
2023-03-27T15:53:43.053Z,1.60
2023-03-27T15:56:29.641Z,3.00
2023-03-27T15:58:59.579Z,1.10
2023-03-27T16:01:42.310Z,1.00
2023-03-27T16:04:18.714Z,1.20
2023-03-27T16:06:49.211Z,1.80
2023-03-27T16:09:23.454Z,1.50
2023-03-27T16:11:54.262Z,1.10
2023-03-27T16:14:23.227Z,1.10
2023-03-27T16:17:12.342Z,2.60
2023-03-27T16:19:48.743Z,1.20
2023-03-27T16:22:43.749Z,1.00
2023-03-27T16:25:12.842Z,1.10
2023-03-27T16:27:49.048Z,0.80
2023-03-27T16:30:22.081Z,1.10
2023-03-27T16:32:51.604Z,1.00
2023-03-27T16:35:20.622Z,1.40
2023-03-27T16:37:50.325Z,1.70
2023-03-27T16:40:19.564Z,24.40
2023-03-27T16:42:48.275Z,4.40
2023-03-27T16:45:17.034Z,2.40
2023-03-27T16:47:50.132Z,1.90
2023-03-27T16:50:22.761Z,2.70
2023-03-27T16:52:51.883Z,2.20
2023-03-27T16:55:21.109Z,2.50
2023-03-27T16:57:52.156Z,1.70
2023-03-27T17:00:21.331Z,2.00
2023-03-27T17:02:50.247Z,1.30
2023-03-27T17:05:18.995Z,1.90
2023-03-27T17:07:48.368Z,1.40
2023-03-27T17:10:17.285Z,1.40
2023-03-27T17:12:46.301Z,1.60
2023-03-27T17:15:16.734Z,2.40
2023-03-27T17:17:45.946Z,1.60
2023-03-27T17:20:14.660Z,1.60
2023-03-27T17:22:44.724Z,2.80
2023-03-27T17:25:13.459Z,1.90
2023-03-27T17:27:42.178Z,2.70
2023-03-27T17:30:11.248Z,2.20
2023-03-27T17:32:40.124Z,2.50
2023-03-27T17:35:09.142Z,2.10
2023-03-27T17:37:37.824Z,3.20
2023-03-27T17:40:09.847Z,3.50
2023-03-27T17:42:38.659Z,3.70
2023-03-27T17:45:07.588Z,2.80
2023-03-27T17:47:36.518Z,3.30
2023-03-27T17:50:06.027Z,2.00
2023-03-27T17:52:34.718Z,1.40
2023-03-27T17:55:03.567Z,1.50
2023-03-27T17:57:33.220Z,1.30
2023-03-27T18:00:01.996Z,2.50
2023-03-27T18:02:30.855Z,1.80
2023-03-27T18:05:00.336Z,1.30
2023-03-27T18:07:30.354Z,1.90
2023-03-27T18:09:59.037Z,2.40
2023-03-27T18:12:28.079Z,2.40
2023-03-27T18:14:56.789Z,1.80
2023-03-27T18:17:26.260Z,2.30
2023-03-27T18:19:55.102Z,2.10
2023-03-27T18:22:23.908Z,2.90
2023-03-27T18:24:52.574Z,1.90
2023-03-27T18:27:21.399Z,1.80
2023-03-27T18:29:50.164Z,2.00
2023-03-27T18:32:20.742Z,1.80
2023-03-27T18:34:49.577Z,1.70
2023-03-27T18:37:18.259Z,1.90
2023-03-27T18:39:47.479Z,1.60
2023-03-27T18:42:16.158Z,2.00
2023-03-27T18:44:44.906Z,1.60
2023-03-27T18:47:13.660Z,2.00
2023-03-27T18:49:44.330Z,2.20
2023-03-27T18:52:14.765Z,2.20
2023-03-27T18:54:43.520Z,1.60
2023-03-27T18:57:12.476Z,2.00
2023-03-27T18:59:42.383Z,2.30
2023-03-27T19:02:11.549Z,2.00
2023-03-27T19:04:41.235Z,2.40
2023-03-27T19:07:10.853Z,2.00
2023-03-27T19:09:41.636Z,2.10
2023-03-27T19:12:11.037Z,1.40
2023-03-27T19:14:41.557Z,1.90
2023-03-27T19:17:14.649Z,1.60
2023-03-27T19:19:45.880Z,2.00
2023-03-27T19:22:15.290Z,1.50
2023-03-27T19:24:44.162Z,1.50
2023-03-27T19:27:23.248Z,1.50
2023-03-27T19:29:54.198Z,2.00
2023-03-27T19:32:24.300Z,2.20
2023-03-27T19:34:53.228Z,1.70
2023-03-27T19:37:22.005Z,1.50
2023-03-27T19:39:51.377Z,1.40
2023-03-27T19:42:20.248Z,2.10
2023-03-27T19:44:49.112Z,1.60
2023-03-27T19:47:17.817Z,1.50
2023-03-27T19:49:47.116Z,1.80
2023-03-27T19:52:16.854Z,2.20
2023-03-27T19:54:45.931Z,1.70
2023-03-27T19:57:14.925Z,1.90
2023-03-27T19:59:43.825Z,1.50
2023-03-27T20:02:12.863Z,1.50
2023-03-27T20:04:41.635Z,1.60
2023-03-27T20:07:10.409Z,1.60
2023-03-27T20:09:39.265Z,3.60
2023-03-27T20:12:08.078Z,2.80
2023-03-27T20:14:36.997Z,1.80
2023-03-27T20:17:12.317Z,2.20
2023-03-27T20:19:50.232Z,1.90
2023-03-27T20:22:20.680Z,1.60
2023-03-27T20:24:49.532Z,1.80
2023-03-27T20:27:20.013Z,1.40
2023-03-27T20:29:49.269Z,2.00
2023-03-27T20:32:18.036Z,10.40
2023-03-27T20:34:48.940Z,2.20
2023-03-27T20:37:18.263Z,2.30
2023-03-27T20:39:47.238Z,1.60
2023-03-27T20:42:17.873Z,2.10
2023-03-27T20:44:47.053Z,1.30
2023-03-27T20:47:19.167Z,1.50
2023-03-27T20:49:48.144Z,1.50
2023-03-27T20:52:17.805Z,1.60
2023-03-27T20:54:47.847Z,1.10
2023-03-27T20:57:16.852Z,1.30
2023-03-27T20:59:47.530Z,1.20
2023-03-27T21:02:17.859Z,1.30
2023-03-27T21:04:47.454Z,1.20
2023-03-27T21:07:16.793Z,1.00
2023-03-27T21:09:45.618Z,1.10
2023-03-27T21:12:14.349Z,1.20
2023-03-27T21:14:43.045Z,1.50
2023-03-27T21:17:11.805Z,1.40
2023-03-27T21:19:40.810Z,1.40
2023-03-27T21:22:09.805Z,1.20
2023-03-27T21:24:38.545Z,1.40
2023-03-27T21:27:07.271Z,1.20
2023-03-27T21:29:36.061Z,3.70
2023-03-27T21:32:04.858Z,1.60
2023-03-27T21:34:33.942Z,2.20
2023-03-27T21:37:02.767Z,2.60
2023-03-27T21:39:31.604Z,1.50
2023-03-27T21:42:00.291Z,2.10
2023-03-27T21:44:29.040Z,1.70
2023-03-27T21:46:57.787Z,1.60
2023-03-27T21:49:26.648Z,1.60
2023-03-27T21:51:55.435Z,1.30
2023-03-27T21:54:24.183Z,0.90
2023-03-27T21:56:53.065Z,1.60
2023-03-27T21:59:21.865Z,1.40
2023-03-27T22:01:50.693Z,1.50
2023-03-27T22:04:21.679Z,1.40
2023-03-27T22:06:50.990Z,1.30
2023-03-27T22:09:19.735Z,1.40
2023-03-27T22:11:48.914Z,1.40
2023-03-27T22:14:17.781Z,1.30
2023-03-27T22:16:46.709Z,1.40
2023-03-27T22:19:15.681Z,1.30
2023-03-27T22:21:44.379Z,1.40
2023-03-27T22:24:13.256Z,1.80
2023-03-27T22:26:42.214Z,1.30
2023-03-27T22:29:11.115Z,1.90
2023-03-27T22:31:39.839Z,1.70
2023-03-27T22:34:08.671Z,1.20
2023-03-27T22:36:37.420Z,1.40
2023-03-27T22:39:06.229Z,1.90
2023-03-27T22:41:34.960Z,2.10
2023-03-27T22:44:03.662Z,1.30
2023-03-27T22:46:33.510Z,1.70
2023-03-27T22:49:02.273Z,2.20
2023-03-27T22:51:31.393Z,3.00
2023-03-27T22:54:00.309Z,2.10
2023-03-27T22:56:29.119Z,1.70
2023-03-27T22:58:57.931Z,1.40
2023-03-27T23:01:26.691Z,1.30
2023-03-27T23:03:55.561Z,1.80
2023-03-27T23:06:24.491Z,1.50
2023-03-27T23:08:53.291Z,1.80
2023-03-27T23:11:22.670Z,1.40
2023-03-27T23:13:51.353Z,1.60
2023-03-27T23:16:20.111Z,1.40
2023-03-27T23:18:48.793Z,1.50
2023-03-27T23:21:18.135Z,1.40
2023-03-27T23:23:47.134Z,1.40
2023-03-27T23:26:15.940Z,2.40
2023-03-27T23:28:44.664Z,2.90
2023-03-27T23:31:14.712Z,2.20
2023-03-27T23:33:45.205Z,2.20
2023-03-27T23:36:18.988Z,1.70
2023-03-27T23:38:47.846Z,1.80
2023-03-27T23:41:16.847Z,1.70
2023-03-27T23:43:45.692Z,1.50
2023-03-27T23:46:14.549Z,1.60
2023-03-27T23:48:44.145Z,1.80
2023-03-27T23:51:13.782Z,1.70
2023-03-27T23:53:42.687Z,1.50
2023-03-27T23:56:11.637Z,1.90
2023-03-27T23:58:40.436Z,1.70
